createdAt,value
2023-02-05T00:01:28.511Z,-0.93
2023-02-05T00:03:55.120Z,-0.56
2023-02-05T00:06:21.745Z,-0.85
2023-02-05T00:08:48.391Z,-0.45
2023-02-05T00:11:15.078Z,-0.92
2023-02-05T00:13:42.878Z,-0.98
2023-02-05T00:16:18.192Z,-0.61
2023-02-05T00:18:45.775Z,-1.03
2023-02-05T00:21:13.973Z,-1.56
2023-02-05T00:23:41.180Z,-0.58
2023-02-05T00:26:08.833Z,-0.24
2023-02-05T00:28:35.948Z,-0.60
2023-02-05T00:31:12.139Z,-0.65
2023-02-05T00:33:39.407Z,-0.77
2023-02-05T00:36:07.409Z,-0.97
2023-02-05T00:38:34.079Z,-0.79
2023-02-05T00:41:00.753Z,-0.72
2023-02-05T00:43:27.432Z,-1.21
2023-02-05T00:45:54.587Z,-1.26
2023-02-05T00:48:21.693Z,-1.17
2023-02-05T00:50:51.133Z,-1.51
2023-02-05T00:53:18.414Z,-1.22
2023-02-05T00:55:45.072Z,-1.06
2023-02-05T00:58:12.507Z,-1.47
2023-02-05T01:00:40.028Z,-1.41
2023-02-05T01:03:06.609Z,-0.93
2023-02-05T01:05:37.354Z,-1.36
2023-02-05T01:08:05.450Z,-1.01
2023-02-05T01:10:33.337Z,-1.07
2023-02-05T01:12:59.976Z,-1.20
2023-02-05T01:15:26.733Z,-1.00
2023-02-05T01:17:53.346Z,-1.18
2023-02-05T01:20:20.532Z,-1.04
2023-02-05T01:22:47.375Z,-0.88
2023-02-05T01:25:13.924Z,-1.19
2023-02-05T01:27:40.610Z,-1.21
2023-02-05T01:30:07.866Z,-0.99
2023-02-05T01:32:35.635Z,-0.81
2023-02-05T01:35:02.238Z,-1.08
2023-02-05T01:37:28.875Z,-0.78
2023-02-05T01:39:55.473Z,-1.06
2023-02-05T01:42:23.934Z,-0.76
2023-02-05T01:45:35.792Z,-1.42
2023-02-05T01:48:04.668Z,-0.93
2023-02-05T01:50:44.658Z,-1.53
2023-02-05T01:53:29.869Z,-1.15
2023-02-05T01:56:09.946Z,-1.49
2023-02-05T01:58:42.616Z,-1.41
2023-02-05T02:01:09.370Z,-1.36
2023-02-05T02:03:36.070Z,-1.71
2023-02-05T02:06:04.866Z,-1.16
2023-02-05T02:08:32.945Z,-1.24
2023-02-05T02:11:02.730Z,-1.47
2023-02-05T02:13:33.566Z,-1.19
2023-02-05T02:16:00.641Z,-1.43
2023-02-05T02:18:28.783Z,-1.50
2023-02-05T02:21:13.265Z,-1.61
2023-02-05T02:24:02.831Z,-1.37
2023-02-05T02:26:51.073Z,-1.88
2023-02-05T02:29:25.145Z,-1.69
2023-02-05T02:31:59.834Z,-1.97
2023-02-05T02:34:48.041Z,-1.95
2023-02-05T02:37:43.378Z,-1.83
2023-02-05T02:40:25.582Z,-1.88
2023-02-05T02:43:03.451Z,-2.22
2023-02-05T02:45:35.052Z,-2.09
2023-02-05T02:48:04.454Z,-2.28
2023-02-05T02:50:36.207Z,-2.17
2023-02-05T02:53:09.020Z,-2.42
2023-02-05T02:55:38.675Z,-1.44
2023-02-05T02:58:13.144Z,-1.54
2023-02-05T03:00:44.029Z,-1.75
2023-02-05T03:03:13.643Z,-1.76
2023-02-05T03:05:43.660Z,-1.74
2023-02-05T03:08:21.745Z,-1.79
2023-02-05T03:10:55.687Z,-2.46
2023-02-05T03:13:22.487Z,-2.50
2023-02-05T03:15:49.333Z,-2.02
2023-02-05T03:18:18.533Z,-2.01
2023-02-05T03:20:57.786Z,-2.01
2023-02-05T03:23:27.329Z,-1.68
2023-02-05T03:25:54.118Z,-1.62
2023-02-05T03:28:21.415Z,-2.13
2023-02-05T03:31:25.621Z,-1.92
2023-02-05T03:34:16.782Z,-2.30
2023-02-05T03:36:48.476Z,-1.91
2023-02-05T03:39:39.747Z,-1.69
2023-02-05T03:42:18.364Z,-2.03
2023-02-05T03:44:44.968Z,-1.77
2023-02-05T03:47:20.471Z,-1.40
2023-02-05T03:50:41.411Z,-1.34
2023-02-05T03:53:35.597Z,-1.45
2023-02-05T03:56:07.571Z,-1.92
2023-02-05T03:58:48.173Z,-1.66
2023-02-05T04:01:15.438Z,-1.48
2023-02-05T04:03:42.421Z,-2.03
2023-02-05T04:06:09.442Z,-2.22
2023-02-05T04:08:36.140Z,-2.23
2023-02-05T04:11:03.229Z,-1.60
2023-02-05T04:13:29.865Z,-2.56
2023-02-05T04:15:56.454Z,-2.60
2023-02-05T04:18:23.134Z,-2.02
2023-02-05T04:20:49.800Z,-2.09
2023-02-05T04:23:16.407Z,-1.74
2023-02-05T04:25:43.146Z,-1.84
2023-02-05T04:28:10.614Z,-1.96
2023-02-05T04:30:37.744Z,-2.06
2023-02-05T04:33:04.356Z,-2.07
2023-02-05T04:35:30.953Z,-1.71
2023-02-05T04:37:57.544Z,-2.06
2023-02-05T04:40:24.160Z,-1.54
2023-02-05T04:42:50.763Z,-1.85
2023-02-05T04:45:17.356Z,-1.58
2023-02-05T04:47:44.068Z,-2.09
2023-02-05T04:50:10.773Z,-2.11
2023-02-05T04:52:37.447Z,-1.68
2023-02-05T04:55:04.280Z,-1.83
2023-02-05T04:57:37.533Z,-2.22
2023-02-05T05:00:05.096Z,-2.12
2023-02-05T05:02:31.969Z,-2.20
2023-02-05T05:04:58.580Z,-1.71
2023-02-05T05:07:25.185Z,-1.96
2023-02-05T05:09:52.538Z,-1.88
2023-02-05T05:12:19.246Z,-1.87
2023-02-05T05:14:45.857Z,-1.40
2023-02-05T05:17:13.360Z,-1.58
2023-02-05T05:19:39.978Z,-1.93
2023-02-05T05:22:07.091Z,-1.92
2023-02-05T05:24:33.771Z,-2.04
2023-02-05T05:27:00.462Z,-2.42
2023-02-05T05:29:27.195Z,-2.84
2023-02-05T05:31:54.379Z,-2.44
2023-02-05T05:34:21.320Z,-1.97
2023-02-05T05:36:48.203Z,-2.24
2023-02-05T05:39:34.339Z,-1.86
2023-02-05T05:42:19.310Z,-1.71
2023-02-05T05:44:50.154Z,-1.56
2023-02-05T05:47:17.084Z,-1.81
2023-02-05T05:49:43.766Z,-1.93
2023-02-05T05:52:10.659Z,-2.21
2023-02-05T05:54:37.350Z,-1.86
2023-02-05T05:57:04.554Z,-1.82
2023-02-05T05:59:31.440Z,-1.78
2023-02-05T06:01:58.080Z,-1.93
2023-02-05T06:04:24.769Z,-1.79
2023-02-05T06:06:51.436Z,-1.70
2023-02-05T06:09:18.058Z,-2.22
2023-02-05T06:11:44.671Z,-2.20
2023-02-05T06:14:11.271Z,-2.38
2023-02-05T06:16:37.892Z,-2.00
2023-02-05T06:19:04.975Z,-2.05
2023-02-05T06:21:31.766Z,-1.89
2023-02-05T06:23:58.433Z,-1.82
2023-02-05T06:26:25.071Z,-1.82
2023-02-05T06:28:51.673Z,-1.32
2023-02-05T06:31:18.493Z,-1.94
2023-02-05T06:33:45.110Z,-1.55
2023-02-05T06:36:11.766Z,-1.35
2023-02-05T06:38:38.344Z,-1.48
2023-02-05T06:41:05.118Z,-2.16
2023-02-05T06:43:31.777Z,-1.65
2023-02-05T06:45:58.407Z,-1.54
2023-02-05T06:48:25.066Z,-2.42
2023-02-05T06:50:52.359Z,-2.14
2023-02-05T06:53:19.116Z,-2.51
2023-02-05T06:55:45.793Z,-2.48
2023-02-05T06:58:16.274Z,-2.61
2023-02-05T07:00:44.741Z,-2.08
2023-02-05T07:03:13.637Z,-1.95
2023-02-05T07:05:40.368Z,-2.49
2023-02-05T07:08:07.327Z,-2.65
2023-02-05T07:10:34.010Z,-2.34
2023-02-05T07:13:00.801Z,-1.89
2023-02-05T07:15:27.512Z,-2.08
2023-02-05T07:17:54.121Z,-2.41
2023-02-05T07:20:20.851Z,-2.78
2023-02-05T07:22:47.441Z,-2.03
2023-02-05T07:25:14.095Z,-1.38
2023-02-05T07:27:40.773Z,-1.05
2023-02-05T07:30:08.324Z,-2.06
2023-02-05T07:32:35.027Z,-1.90
2023-02-05T07:35:03.157Z,-2.26
2023-02-05T07:37:29.808Z,-2.25
2023-02-05T07:39:56.407Z,-2.19
2023-02-05T07:42:23.021Z,-1.73
2023-02-05T07:44:49.666Z,-1.40
2023-02-05T07:47:16.307Z,-1.72
2023-02-05T07:49:42.978Z,-1.79
2023-02-05T07:52:09.579Z,-1.87
2023-02-05T07:54:36.334Z,-1.59
2023-02-05T07:57:04.865Z,-1.72
2023-02-05T07:59:32.595Z,-1.57
2023-02-05T08:01:59.242Z,-1.81
2023-02-05T08:04:25.856Z,-2.00
2023-02-05T08:06:52.598Z,-1.79
2023-02-05T08:09:19.258Z,-1.60
2023-02-05T08:11:45.898Z,-1.40
2023-02-05T08:14:12.545Z,-0.96
2023-02-05T08:16:39.299Z,-0.41
2023-02-05T08:19:07.100Z,-0.32
2023-02-05T08:21:33.712Z,-1.02
2023-02-05T08:24:01.987Z,-0.86
2023-02-05T08:26:28.601Z,-0.57
2023-02-05T08:28:55.320Z,-0.05
2023-02-05T08:31:21.990Z,-0.04
2023-02-05T08:33:50.780Z,0.40
2023-02-05T08:36:17.492Z,0.20
2023-02-05T08:38:44.081Z,0.63
2023-02-05T08:41:14.800Z,1.18
2023-02-05T08:43:43.292Z,1.33
2023-02-05T08:46:12.156Z,0.25
2023-02-05T08:48:39.000Z,-0.38
2023-02-05T08:51:06.155Z,-0.46
2023-02-05T08:53:33.321Z,-0.04
2023-02-05T08:56:02.208Z,-0.42
2023-02-05T08:58:30.045Z,-0.38
2023-02-05T09:01:02.816Z,-0.20
2023-02-05T09:03:30.964Z,-0.27
2023-02-05T09:05:59.411Z,0.12
2023-02-05T09:08:27.374Z,0.11
2023-02-05T09:10:54.225Z,0.11
2023-02-05T09:13:20.803Z,0.30
2023-02-05T09:15:48.686Z,0.17
2023-02-05T09:18:15.674Z,0.16
2023-02-05T09:20:47.663Z,-1.30
2023-02-05T09:23:16.517Z,-0.48
2023-02-05T09:25:43.674Z,0.05
2023-02-05T09:28:12.922Z,-0.02
2023-02-05T09:30:42.225Z,0.37
2023-02-05T09:33:09.598Z,0.41
2023-02-05T09:35:36.782Z,0.33
2023-02-05T09:38:03.663Z,0.76
2023-02-05T09:40:38.469Z,0.35
2023-02-05T09:43:35.830Z,0.48
2023-02-05T09:46:22.770Z,0.13
2023-02-05T09:48:55.847Z,-0.71
2023-02-05T09:51:45.011Z,-0.65
2023-02-05T09:54:35.786Z,0.33
2023-02-05T09:57:16.508Z,0.32
2023-02-05T09:59:46.563Z,0.89
2023-02-05T10:02:26.482Z,-0.33
2023-02-05T10:04:54.934Z,-0.11
2023-02-05T10:07:47.240Z,0.36
2023-02-05T10:10:18.780Z,-0.40
2023-02-05T10:13:21.060Z,-0.10
2023-02-05T10:16:23.436Z,0.07
2023-02-05T10:19:10.943Z,0.43
2023-02-05T10:21:49.395Z,0.48
2023-02-05T10:24:50.994Z,-0.39
2023-02-05T10:27:38.633Z,-0.64
2023-02-05T10:30:11.222Z,-0.70
2023-02-05T10:33:27.797Z,-0.73
2023-02-05T10:36:02.003Z,-1.36
2023-02-05T10:38:33.640Z,-0.59
2023-02-05T10:41:36.092Z,0.05
2023-02-05T10:44:11.499Z,-0.15
2023-02-05T10:46:40.156Z,-0.43
2023-02-05T10:49:18.949Z,-0.43
2023-02-05T10:51:46.285Z,-0.64
2023-02-05T10:54:20.845Z,-0.15
2023-02-05T10:56:48.231Z,-0.04
2023-02-05T10:59:23.489Z,-0.01
2023-02-05T11:01:51.461Z,-0.37
2023-02-05T11:04:28.361Z,-0.02
2023-02-05T11:06:54.994Z,-0.07
2023-02-05T11:09:24.526Z,0.79
2023-02-05T11:11:53.092Z,0.22
2023-02-05T11:14:37.257Z,0.18
2023-02-05T11:17:26.783Z,0.22
2023-02-05T11:19:56.146Z,0.75
2023-02-05T11:22:37.516Z,0.87
2023-02-05T11:25:18.012Z,-0.01
2023-02-05T11:27:54.621Z,-0.04
2023-02-05T11:30:56.156Z,0.19
2023-02-05T11:33:22.143Z,0.38
2023-02-05T11:36:03.190Z,0.42
2023-02-05T11:38:53.754Z,0.50
2023-02-05T11:41:51.756Z,0.48
2023-02-05T11:44:26.001Z,0.87
2023-02-05T11:46:57.057Z,0.77
2023-02-05T11:49:34.836Z,-0.84
2023-02-05T11:52:11.777Z,-0.96
2023-02-05T11:54:39.538Z,-0.42
2023-02-05T11:57:18.695Z,-1.15
2023-02-05T12:00:22.044Z,0.24
2023-02-05T12:02:54.198Z,0.61
2023-02-05T12:05:32.449Z,0.43
2023-02-05T12:08:09.119Z,0.62
2023-02-05T12:10:49.719Z,1.04
2023-02-05T12:13:48.606Z,0.50
2023-02-05T12:16:21.842Z,1.37
2023-02-05T12:18:48.609Z,1.02
2023-02-05T12:21:49.460Z,1.83
2023-02-05T12:24:28.601Z,0.71
2023-02-05T12:27:22.472Z,0.54
2023-02-05T12:30:04.810Z,1.14
2023-02-05T12:33:02.134Z,1.68
2023-02-05T12:35:59.518Z,0.26
2023-02-05T12:38:44.266Z,-0.23
2023-02-05T12:41:13.461Z,0.93
2023-02-05T12:43:45.193Z,0.99
2023-02-05T12:46:38.114Z,1.02
2023-02-05T12:49:26.304Z,0.67
2023-02-05T12:51:53.033Z,0.67
2023-02-05T12:54:39.490Z,0.72
2023-02-05T12:57:12.150Z,1.34
2023-02-05T12:59:46.896Z,1.27
2023-02-05T13:02:16.463Z,0.87
2023-02-05T13:04:51.820Z,0.23
2023-02-05T13:07:38.289Z,0.83
2023-02-05T13:10:19.699Z,1.10
2023-02-05T13:12:52.021Z,1.01
2023-02-05T13:15:28.214Z,0.71
2023-02-05T13:18:01.894Z,0.53
2023-02-05T13:20:52.583Z,-0.21
2023-02-05T13:23:37.805Z,0.16
2023-02-05T13:26:16.672Z,0.17
2023-02-05T13:28:47.926Z,-0.39
2023-02-05T13:31:30.682Z,-0.94
2023-02-05T13:34:03.394Z,-0.87
2023-02-05T13:36:56.559Z,-1.17
2023-02-05T13:39:34.222Z,-0.84
2023-02-05T13:42:32.498Z,-0.57
2023-02-05T13:45:37.459Z,-0.47
2023-02-05T13:48:49.418Z,-0.05
2023-02-05T13:51:21.989Z,-0.38
2023-02-05T13:54:09.879Z,-1.05
2023-02-05T13:56:48.689Z,-0.59
2023-02-05T13:59:37.212Z,-0.85
2023-02-05T14:02:24.443Z,0.16
2023-02-05T14:04:54.864Z,-1.14
2023-02-05T14:07:31.278Z,-0.64
2023-02-05T14:10:01.055Z,-1.28
2023-02-05T14:12:29.190Z,-1.00
2023-02-05T14:15:17.475Z,-0.80
2023-02-05T14:17:44.105Z,-1.68
2023-02-05T14:20:25.965Z,-1.22
2023-02-05T14:22:54.530Z,-1.63
2023-02-05T14:25:36.878Z,-1.64
2023-02-05T14:28:15.793Z,-1.99
2023-02-05T14:30:50.490Z,-1.39
2023-02-05T14:33:47.289Z,-1.52
2023-02-05T14:36:17.252Z,-2.55
2023-02-05T14:39:05.027Z,-2.19
2023-02-05T14:41:47.025Z,-1.81
2023-02-05T14:44:13.567Z,-1.95
2023-02-05T14:46:58.415Z,-2.06
2023-02-05T14:49:47.163Z,-2.11
2023-02-05T14:52:21.735Z,-2.16
2023-02-05T14:54:57.388Z,-2.04
2023-02-05T14:57:44.516Z,-2.19
2023-02-05T15:00:28.096Z,-1.77
2023-02-05T15:03:13.070Z,-1.60
2023-02-05T15:05:48.877Z,-2.42
2023-02-05T15:08:34.135Z,-2.51
2023-02-05T15:11:06.803Z,-2.35
2023-02-05T15:13:34.280Z,-2.23
2023-02-05T15:16:13.218Z,-2.26
2023-02-05T15:18:39.931Z,-2.28
2023-02-05T15:21:10.120Z,-2.59
2023-02-05T15:23:46.477Z,-2.01
2023-02-05T15:26:27.759Z,-2.46
2023-02-05T15:29:03.863Z,-2.56
2023-02-05T15:31:47.118Z,-2.33
2023-02-05T15:34:37.742Z,-2.03
2023-02-05T15:37:10.098Z,-2.21
2023-02-05T15:39:42.532Z,-2.07
2023-02-05T15:42:15.957Z,-1.71
2023-02-05T15:44:42.627Z,-2.19
2023-02-05T15:47:17.337Z,-1.86
2023-02-05T15:49:49.033Z,-2.37
2023-02-05T15:52:20.453Z,-1.53
2023-02-05T15:54:47.240Z,-1.33
2023-02-05T15:57:26.711Z,-1.87
2023-02-05T15:59:55.047Z,-2.09
2023-02-05T16:02:25.066Z,-2.48
2023-02-05T16:05:00.436Z,-2.44
2023-02-05T16:07:37.093Z,-2.12
2023-02-05T16:10:20.621Z,-1.77
2023-02-05T16:13:15.763Z,-1.79
2023-02-05T16:16:05.896Z,-1.68
2023-02-05T16:18:47.320Z,-1.95
2023-02-05T16:21:29.477Z,-1.94
2023-02-05T16:24:00.053Z,-1.89
2023-02-05T16:26:29.135Z,-2.07
2023-02-05T16:29:03.187Z,-2.15
2023-02-05T16:31:32.775Z,-1.80
2023-02-05T16:34:07.619Z,-2.06
2023-02-05T16:36:39.526Z,-1.72
2023-02-05T16:39:20.238Z,-1.76
2023-02-05T16:42:01.721Z,-1.26
2023-02-05T16:44:32.978Z,-1.39
2023-02-05T16:47:26.208Z,-1.09
2023-02-05T16:49:53.280Z,-1.49
2023-02-05T16:52:36.535Z,-1.37
2023-02-05T16:55:27.597Z,-1.15
2023-02-05T16:57:56.380Z,-1.52
2023-02-05T17:00:25.897Z,-1.89
2023-02-05T17:02:55.461Z,-1.54
2023-02-05T17:05:29.130Z,-2.34
2023-02-05T17:07:58.258Z,-2.48
2023-02-05T17:10:25.546Z,-2.34
2023-02-05T17:13:05.472Z,-2.71
2023-02-05T17:15:35.933Z,-2.11
2023-02-05T17:18:20.192Z,-1.92
2023-02-05T17:20:47.026Z,-2.46
2023-02-05T17:23:15.975Z,-2.36
2023-02-05T17:25:55.455Z,-2.53
2023-02-05T17:28:25.700Z,-2.09
2023-02-05T17:30:54.622Z,-1.59
2023-02-05T17:33:23.836Z,-2.31
2023-02-05T17:35:50.636Z,-2.22
2023-02-05T17:38:17.952Z,-2.40
2023-02-05T17:40:44.954Z,-2.32
2023-02-05T17:43:11.572Z,-2.03
2023-02-05T17:45:40.611Z,-2.04
2023-02-05T17:48:08.398Z,-2.10
2023-02-05T17:50:36.115Z,-2.12
2023-02-05T17:53:03.809Z,-1.99
2023-02-05T17:55:30.575Z,-2.39
2023-02-05T17:57:57.224Z,-2.07
2023-02-05T18:00:26.600Z,-1.94
2023-02-05T18:02:54.184Z,-2.58
2023-02-05T18:05:21.070Z,-2.03
2023-02-05T18:07:51.359Z,-2.53
2023-02-05T18:10:23.345Z,-2.25
2023-02-05T18:12:50.427Z,-2.31
2023-02-05T18:15:17.310Z,-2.01
2023-02-05T18:17:43.998Z,-2.20
2023-02-05T18:20:12.308Z,-2.57
2023-02-05T18:22:39.015Z,-2.52
2023-02-05T18:25:06.591Z,-2.16
2023-02-05T18:27:33.623Z,-2.63
2023-02-05T18:30:00.251Z,-2.63
2023-02-05T18:32:26.902Z,-2.12
2023-02-05T18:34:53.763Z,-2.18
2023-02-05T18:37:20.452Z,-1.72
2023-02-05T18:39:48.129Z,-2.30
2023-02-05T18:42:15.462Z,-1.95
2023-02-05T18:44:42.250Z,-2.00
2023-02-05T18:47:10.174Z,-1.70
2023-02-05T18:49:38.113Z,-1.75
2023-02-05T18:52:06.292Z,-2.34
2023-02-05T18:54:33.287Z,-2.04
2023-02-05T18:56:59.952Z,-1.80
2023-02-05T18:59:26.626Z,-2.07
2023-02-05T19:01:53.842Z,-2.20
2023-02-05T19:04:21.166Z,-2.02
2023-02-05T19:06:54.970Z,-2.34
2023-02-05T19:09:25.084Z,-2.36
2023-02-05T19:11:53.154Z,-2.43
2023-02-05T19:14:22.138Z,-2.12
2023-02-05T19:16:49.736Z,-1.79
2023-02-05T19:19:20.166Z,-2.39
2023-02-05T19:21:48.874Z,-2.85
2023-02-05T19:24:17.351Z,-2.25
2023-02-05T19:26:44.794Z,-1.71
2023-02-05T19:29:18.763Z,-1.83
2023-02-05T19:31:46.255Z,-1.77
2023-02-05T19:34:13.109Z,-2.01
2023-02-05T19:36:41.127Z,-1.87
2023-02-05T19:39:11.193Z,-1.86
2023-02-05T19:41:38.409Z,-1.85
2023-02-05T19:44:07.775Z,-2.09
2023-02-05T19:46:37.834Z,-1.96
2023-02-05T19:49:11.761Z,-1.72
2023-02-05T19:51:43.516Z,-1.97
2023-02-05T19:54:10.191Z,-1.54
2023-02-05T19:56:38.088Z,-1.49
2023-02-05T19:59:06.561Z,-1.71
2023-02-05T20:01:36.397Z,-1.59
2023-02-05T20:04:12.760Z,-1.33
2023-02-05T20:06:40.535Z,-2.00
2023-02-05T20:09:10.808Z,-1.85
2023-02-05T20:11:39.395Z,-1.70
2023-02-05T20:14:07.464Z,-1.78
2023-02-05T20:16:35.245Z,-1.77
2023-02-05T20:19:02.016Z,-1.19
2023-02-05T20:21:30.429Z,-1.89
2023-02-05T20:23:57.170Z,-1.60
2023-02-05T20:26:24.688Z,-1.64
2023-02-05T20:29:14.941Z,-1.32
2023-02-05T20:31:44.984Z,-1.65
2023-02-05T20:34:25.686Z,-1.75
2023-02-05T20:36:57.967Z,-1.72
2023-02-05T20:39:28.719Z,-1.75
2023-02-05T20:41:58.000Z,-1.87
2023-02-05T20:44:26.737Z,-2.05
2023-02-05T20:46:53.513Z,-2.06
2023-02-05T20:49:20.378Z,-1.97
2023-02-05T20:51:47.611Z,-2.18
2023-02-05T20:54:14.422Z,-1.96
2023-02-05T20:56:41.263Z,-2.03
2023-02-05T20:59:09.372Z,-1.96
2023-02-05T21:01:37.209Z,-2.12
2023-02-05T21:04:06.110Z,-1.86
2023-02-05T21:06:36.154Z,-1.64
2023-02-05T21:09:03.844Z,-1.77
2023-02-05T21:11:30.739Z,-2.41
2023-02-05T21:13:58.820Z,-2.08
2023-02-05T21:16:27.560Z,-1.54
2023-02-05T21:18:54.794Z,-1.75
2023-02-05T21:21:26.955Z,-2.08
2023-02-05T21:23:59.137Z,-2.12
2023-02-05T21:26:35.293Z,-2.01
2023-02-05T21:29:05.344Z,-2.38
2023-02-05T21:31:35.973Z,-2.12
2023-02-05T21:34:04.379Z,-2.18
2023-02-05T21:36:31.976Z,-2.43
2023-02-05T21:38:59.042Z,-2.24
2023-02-05T21:41:25.697Z,-2.53
2023-02-05T21:43:55.000Z,-2.20
2023-02-05T21:46:22.990Z,-2.28
2023-02-05T21:48:51.912Z,-2.72
2023-02-05T21:51:20.652Z,-2.61
2023-02-05T21:53:47.293Z,-2.68
2023-02-05T21:56:16.613Z,-2.24
2023-02-05T21:58:43.433Z,-2.34
2023-02-05T22:01:12.891Z,-1.76
2023-02-05T22:03:41.264Z,-1.92
2023-02-05T22:06:08.621Z,-1.92
2023-02-05T22:08:40.104Z,-2.26
2023-02-05T22:11:09.625Z,-2.40
2023-02-05T22:13:38.677Z,-1.93
2023-02-05T22:16:11.465Z,-2.15
2023-02-05T22:18:38.469Z,-2.43
2023-02-05T22:21:13.669Z,-2.46
2023-02-05T22:23:41.776Z,-2.48
2023-02-05T22:26:09.342Z,-2.48
2023-02-05T22:28:36.777Z,-2.27
2023-02-05T22:31:04.498Z,-2.31
2023-02-05T22:33:32.228Z,-2.51
2023-02-05T22:35:59.672Z,-2.60
2023-02-05T22:38:27.346Z,-2.59
2023-02-05T22:40:53.940Z,-2.17
2023-02-05T22:43:21.540Z,-2.78
2023-02-05T22:45:48.271Z,-2.44
2023-02-05T22:48:15.024Z,-3.06
2023-02-05T22:50:43.161Z,-2.74
2023-02-05T22:53:11.001Z,-2.61
2023-02-05T22:55:39.726Z,-2.49
2023-02-05T22:58:07.211Z,-2.50
2023-02-05T23:00:34.232Z,-2.80
2023-02-05T23:03:01.310Z,-2.66
2023-02-05T23:05:33.285Z,-2.43
2023-02-05T23:08:00.551Z,-2.32
2023-02-05T23:10:27.681Z,-2.41
2023-02-05T23:12:54.354Z,-3.34
2023-02-05T23:15:21.060Z,-2.60
2023-02-05T23:17:47.640Z,-2.23
2023-02-05T23:20:16.689Z,-2.05
2023-02-05T23:22:43.419Z,-1.85
2023-02-05T23:25:10.697Z,-1.87
2023-02-05T23:27:37.305Z,-1.70
2023-02-05T23:30:05.376Z,-2.09
2023-02-05T23:32:32.388Z,-1.75
2023-02-05T23:34:58.988Z,-2.23
2023-02-05T23:37:25.660Z,-2.59
2023-02-05T23:39:52.271Z,-2.31
2023-02-05T23:42:18.922Z,-2.29
2023-02-05T23:44:45.606Z,-1.78
2023-02-05T23:47:12.154Z,-2.24
2023-02-05T23:49:38.804Z,-1.75
2023-02-05T23:52:05.474Z,-1.77
2023-02-05T23:54:32.241Z,-1.94
2023-02-05T23:56:58.788Z,-2.32
2023-02-05T23:59:25.424Z,-2.15
